Time;durP1;ratioP1;P1;durP2;ratioP2;P2;SDS_P1;SDS_P2;PMS_P1;PMS_P2;Temp;Humidity;BMP_temperature;BMP_pressure;BME280_temperature;BME280_humidity;BME280_pressure;Samples;Min_cycle;Max_cycle;Signal;HPM_P1;HPM_P2
2021/06/05 00:00:42;;;;;;;155.32;63.08;;;16.80;97.40;;;;;;4939229;28;20043;-86
2021/06/05 00:03:09;;;;;;;175.35;67.72;;;16.80;97.30;;;;;;4950932;28;20045;-88
2021/06/05 00:05:38;;;;;;;152.20;60.92;;;16.80;97.20;;;;;;4912511;29;20535;-88
2021/06/05 00:08:06;;;;;;;166.60;67.45;;;16.80;97.30;;;;;;4932093;29;20153;-89
2021/06/05 00:10:36;;;;;;;163.05;66.13;;;16.80;97.40;;;;;;4929659;29;20127;-87
2021/06/05 00:13:03;;;;;;;180.35;71.38;;;16.70;97.50;;;;;;4945895;28;20045;-87
2021/06/05 00:15:33;;;;;;;164.30;67.53;;;16.80;97.40;;;;;;4933306;28;20467;-87
2021/06/05 00:17:59;;;;;;;157.35;66.85;;;16.70;97.40;;;;;;4949576;28;20609;-87
2021/06/05 00:20:29;;;;;;;162.15;68.82;;;16.70;97.30;;;;;;4979815;28;20042;-88
2021/06/05 00:22:56;;;;;;;154.98;66.25;;;16.70;97.30;;;;;;4947730;28;20406;-86
2021/06/05 00:25:25;;;;;;;155.10;63.22;;;16.80;97.30;;;;;;4944147;28;20126;-87
2021/06/05 00:27:51;;;;;;;158.57;60.90;;;16.70;97.40;;;;;;4969886;28;20457;-87
2021/06/05 00:30:18;;;;;;;143.68;59.38;;;16.70;97.30;;;;;;4890039;29;20051;-87
2021/06/05 00:32:44;;;;;;;156.82;61.88;;;16.70;97.20;;;;;;4905119;29;20051;-87
2021/06/05 00:35:11;;;;;;;153.48;62.53;;;16.70;97.20;;;;;;4903055;29;20261;-87
2021/06/05 00:37:37;;;;;;;165.23;65.20;;;16.70;97.30;;;;;;4958590;28;20035;-86
2021/06/05 00:40:05;;;;;;;155.73;62.38;;;16.70;97.20;;;;;;4946373;28;20195;-88
2021/06/05 00:42:31;;;;;;;147.48;61.60;;;16.70;97.20;;;;;;4944694;28;20130;-88
2021/06/05 00:44:57;;;;;;;138.60;58.75;;;16.70;97.20;;;;;;4940153;28;20027;-86
2021/06/05 00:47:23;;;;;;;148.55;59.67;;;16.60;97.20;;;;;;4954706;28;20046;-86
2021/06/05 00:49:49;;;;;;;137.13;57.65;;;16.70;97.20;;;;;;4946214;28;20019;-88
2021/06/05 00:52:19;;;;;;;149.68;58.53;;;16.60;97.20;;;;;;4951034;28;20031;-87
2021/06/05 00:54:48;;;;;;;136.63;53.65;;;16.60;97.30;;;;;;4942132;28;20043;-86
2021/06/05 00:57:14;;;;;;;150.40;58.80;;;16.60;97.30;;;;;;4958733;28;20039;-87
2021/06/05 00:59:40;;;;;;;139.30;58.38;;;16.50;97.20;;;;;;4929627;29;20446;-89
2021/06/05 01:02:09;;;;;;;133.00;54.83;;;16.50;97.20;;;;;;4947365;28;20338;-87
2021/06/05 01:04:37;;;;;;;139.65;55.75;;;16.50;97.20;;;;;;4948459;28;20074;-86
2021/06/05 01:07:23;;;;;;;132.30;53.08;;;16.50;97.20;;;;;;4964072;28;20409;-89
2021/06/05 01:10:21;;;;;;;122.72;52.40;;;16.40;97.30;;;;;;4961140;28;20063;-87
2021/06/05 01:13:02;;;;;;;125.88;52.00;;;16.40;97.30;;;;;;4962572;28;20050;-86
2021/06/05 01:15:46;;;;;;;125.45;53.92;;;16.30;97.40;;;;;;4944880;29;20035;-87
2021/06/05 01:18:22;;;;;;;120.90;55.53;;;16.30;97.30;;;;;;4968842;28;20050;-87
2021/06/05 01:21:10;;;;;;;108.10;51.40;;;16.30;97.30;;;;;;4937338;28;20391;-87
2021/06/05 01:23:55;;;;;;;124.18;54.63;;;16.30;97.30;;;;;;4965495;28;20039;-87
2021/06/05 01:26:33;;;;;;;143.23;60.30;;;16.30;97.40;;;;;;4968815;28;20043;-89
2021/06/05 01:29:14;;;;;;;143.63;58.35;;;16.30;97.30;;;;;;4975796;28;20035;-88
2021/06/05 01:31:44;;;;;;;143.63;59.80;;;16.20;97.40;;;;;;4951456;28;20259;-88
2021/06/05 01:34:12;;;;;;;127.05;56.75;;;16.20;97.30;;;;;;4933132;29;20039;-89
2021/06/05 01:36:45;;;;;;;130.00;57.58;;;16.30;97.40;;;;;;4949217;28;20122;-88
2021/06/05 01:39:13;;;;;;;135.80;60.30;;;16.30;97.40;;;;;;4943944;28;20499;-89
2021/06/05 01:41:41;;;;;;;133.38;56.08;;;16.30;97.40;;;;;;4981573;28;20047;-88
2021/06/05 01:44:13;;;;;;;138.93;59.00;;;16.30;97.40;;;;;;4932521;29;20532;-88
2021/06/05 01:46:42;;;;;;;145.43;58.55;;;16.30;97.50;;;;;;4975879;28;20490;-90
2021/06/05 01:49:11;;;;;;;141.95;58.47;;;16.30;97.50;;;;;;4947875;28;20035;-88
2021/06/05 01:51:41;;;;;;;139.52;57.80;;;16.20;97.50;;;;;;4951727;28;20055;-89
2021/06/05 01:54:15;;;;;;;128.95;56.22;;;16.20;97.40;;;;;;4946427;28;20402;-87
2021/06/05 01:56:51;;;;;;;145.45;58.25;;;16.20;97.40;;;;;;4923964;29;20499;-87
2021/06/05 01:59:18;;;;;;;163.55;60.67;;;16.20;97.50;;;;;;4936049;29;20039;-87
2021/06/05 02:01:46;;;;;;;155.88;57.80;;;16.10;97.40;;;;;;4956703;28;20044;-86
2021/06/05 02:04:14;;;;;;;168.80;59.55;;;16.10;97.60;;;;;;4946103;28;20038;-91
2021/06/05 02:06:40;;;;;;;134.27;57.03;;;16.00;97.50;;;;;;4929463;29;20069;-87
2021/06/05 02:09:09;;;;;;;130.63;57.67;;;16.10;97.50;;;;;;4935538;29;20063;-89
2021/06/05 02:11:43;;;;;;;145.00;56.97;;;16.00;97.60;;;;;;4946959;28;20035;-89
2021/06/05 02:14:16;;;;;;;146.43;57.33;;;16.00;97.50;;;;;;4944996;28;20031;-89
2021/06/05 02:16:47;;;;;;;132.55;55.20;;;16.10;97.60;;;;;;4943888;28;20042;-89
2021/06/05 02:19:26;;;;;;;129.73;55.17;;;16.00;97.50;;;;;;4938379;29;20044;-89
2021/06/05 02:21:56;;;;;;;122.22;51.50;;;16.00;97.60;;;;;;4956614;28;20043;-88
2021/06/05 02:24:28;;;;;;;128.15;54.70;;;16.00;97.50;;;;;;4944285;28;20042;-88
2021/06/05 02:26:54;;;;;;;144.45;55.80;;;16.00;97.50;;;;;;4945064;28;20418;-89
2021/06/05 02:29:25;;;;;;;136.35;56.55;;;15.90;97.50;;;;;;4978869;28;20047;-88
2021/06/05 02:31:51;;;;;;;123.22;52.88;;;15.90;97.50;;;;;;4952342;28;20046;-89
2021/06/05 02:34:24;;;;;;;128.27;56.35;;;15.90;97.60;;;;;;4930606;29;20058;-89
2021/06/05 02:36:54;;;;;;;126.95;56.97;;;15.90;97.70;;;;;;4952320;28;20414;-88
2021/06/05 02:39:20;;;;;;;121.70;53.40;;;15.90;97.60;;;;;;4967198;28;20428;-89
2021/06/05 02:41:49;;;;;;;142.88;57.33;;;15.90;97.60;;;;;;4949054;28;20039;-88
2021/06/05 02:44:21;;;;;;;140.05;57.17;;;15.90;97.60;;;;;;4943703;29;20093;-89
2021/06/05 02:46:48;;;;;;;135.30;56.05;;;15.90;97.60;;;;;;4964087;28;20131;-88
2021/06/05 02:49:17;;;;;;;130.88;55.83;;;16.00;97.70;;;;;;4947991;28;20558;-87
2021/06/05 02:51:55;;;;;;;129.93;56.05;;;15.90;97.60;;;;;;4958602;28;20109;-88
2021/06/05 02:54:23;;;;;;;157.93;56.85;;;15.90;97.70;;;;;;4951338;28;20518;-88
2021/06/05 02:56:52;;;;;;;135.00;53.50;;;15.90;97.70;;;;;;4948272;28;20718;-87
2021/06/05 02:59:18;;;;;;;153.48;58.47;;;15.80;97.70;;;;;;4914358;29;20459;-88
2021/06/05 03:01:44;;;;;;;150.13;54.13;;;15.80;97.80;;;;;;4949737;28;20063;-87
2021/06/05 03:04:10;;;;;;;148.52;56.92;;;15.80;97.80;;;;;;4927330;29;20035;-87
2021/06/05 03:06:36;;;;;;;144.27;59.10;;;15.80;98.00;;;;;;4953146;28;20336;-86
2021/06/05 03:09:05;;;;;;;149.38;58.50;;;15.80;98.00;;;;;;4954989;28;20039;-87
2021/06/05 03:11:32;;;;;;;160.27;59.60;;;15.80;98.00;;;;;;4973773;28;20036;-87
2021/06/05 03:14:02;;;;;;;202.85;58.53;;;15.80;98.00;;;;;;4952896;28;20501;-87
2021/06/05 03:16:28;;;;;;;149.13;59.33;;;15.80;98.00;;;;;;4935838;29;20171;-89
2021/06/05 03:18:54;;;;;;;146.30;56.63;;;15.70;98.10;;;;;;4955136;28;20042;-89
2021/06/05 03:21:21;;;;;;;149.20;58.60;;;15.80;98.10;;;;;;4919009;29;20060;-88
2021/06/05 03:23:49;;;;;;;144.52;57.33;;;15.80;98.10;;;;;;4934935;29;20035;-87
2021/06/05 03:26:17;;;;;;;155.05;52.08;;;15.80;98.10;;;;;;4942490;29;20062;-87
2021/06/05 03:28:55;;;;;;;119.72;48.85;;;15.80;98.10;;;;;;4950980;28;20145;-86
2021/06/05 03:31:21;;;;;;;131.10;53.45;;;15.80;97.90;;;;;;4944935;29;20051;-89
2021/06/05 03:33:49;;;;;;;138.88;50.13;;;15.80;98.00;;;;;;4932076;28;20041;-86
2021/06/05 03:36:16;;;;;;;107.85;48.67;;;15.70;98.00;;;;;;4953990;28;20041;-88
2021/06/05 03:38:44;;;;;;;114.53;48.42;;;15.60;97.90;;;;;;4964376;28;20483;-86
2021/06/05 03:41:11;;;;;;;105.60;48.22;;;15.60;97.90;;;;;;4967307;28;20051;-86
2021/06/05 03:43:37;;;;;;;97.95;47.53;;;15.60;98.00;;;;;;4935215;29;20043;-86
2021/06/05 03:46:09;;;;;;;110.20;48.35;;;15.60;98.00;;;;;;4971178;28;20038;-85
2021/06/05 03:48:36;;;;;;;91.43;45.92;;;15.70;98.00;;;;;;4934384;29;20043;-87
2021/06/05 03:51:02;;;;;;;95.20;46.63;;;15.70;98.00;;;;;;4935325;29;20067;-88
2021/06/05 03:53:29;;;;;;;89.20;44.83;;;15.70;98.00;;;;;;4919614;29;20058;-87
2021/06/05 03:55:55;;;;;;;82.80;43.75;;;15.70;97.90;;;;;;4917095;29;20051;-85
2021/06/05 03:58:36;;;;;;;81.47;44.00;;;15.70;97.90;;;;;;4926631;29;20129;-86
2021/06/05 04:01:03;;;;;;;102.85;47.65;;;15.80;97.90;;;;;;4976493;28;20031;-86
2021/06/05 04:03:29;;;;;;;86.65;45.88;;;15.80;97.80;;;;;;4951529;28;20126;-86
2021/06/05 04:05:54;;;;;;;107.43;45.67;;;15.80;97.80;;;;;;4930621;29;20179;-86
2021/06/05 04:08:20;;;;;;;93.97;45.60;;;15.80;97.80;;;;;;4947601;28;20769;-85
2021/06/05 04:10:46;;;;;;;81.95;45.20;;;15.80;97.70;;;;;;4932184;28;20073;-86
2021/06/05 04:13:12;;;;;;;90.55;44.50;;;15.80;97.80;;;;;;4916805;28;20049;-87
2021/06/05 04:15:38;;;;;;;111.45;47.78;;;15.70;97.70;;;;;;4953191;28;20056;-86
2021/06/05 04:18:13;;;;;;;101.10;46.92;;;15.70;97.80;;;;;;4942461;28;20039;-83
2021/06/05 04:20:41;;;;;;;106.18;49.85;;;15.70;97.80;;;;;;4938855;28;20118;-84
2021/06/05 04:23:08;;;;;;;121.65;52.55;;;15.70;97.80;;;;;;4935118;28;20466;-87
2021/06/05 04:25:35;;;;;;;152.05;58.08;;;15.70;98.00;;;;;;4964589;28;20050;-84
2021/06/05 04:28:03;;;;;;;174.15;61.88;;;15.60;98.00;;;;;;4930907;28;20067;-84
2021/06/05 04:30:31;;;;;;;201.15;60.25;;;15.70;98.10;;;;;;4951066;28;20089;-87
2021/06/05 04:32:58;;;;;;;192.27;58.47;;;15.60;98.10;;;;;;4950432;28;20035;-86
2021/06/05 04:35:44;;;;;;;164.68;53.95;;;15.60;98.10;;;;;;4926089;28;20046;-83
2021/06/05 04:38:11;;;;;;;174.23;55.72;;;15.60;98.10;;;;;;4939355;28;20043;-85
2021/06/05 04:40:39;;;;;;;174.70;54.83;;;15.60;98.10;;;;;;4946741;28;20046;-84
2021/06/05 04:43:06;;;;;;;200.10;57.83;;;15.50;98.10;;;;;;4933480;28;20034;-85
2021/06/05 04:45:33;;;;;;;166.63;50.88;;;15.50;98.20;;;;;;4946297;28;20296;-83
2021/06/05 04:48:00;;;;;;;130.05;45.05;;;15.50;98.30;;;;;;4936783;28;20043;-86
2021/06/05 04:50:31;;;;;;;102.53;41.97;;;15.50;98.30;;;;;;4970124;28;20324;-86
2021/06/05 04:52:57;;;;;;;85.65;39.38;;;15.50;98.30;;;;;;4935007;28;20163;-85
2021/06/05 04:55:23;;;;;;;104.80;39.65;;;15.40;98.20;;;;;;4933682;28;20086;-84
2021/06/05 04:57:51;;;;;;;108.28;39.05;;;15.40;98.30;;;;;;4945438;28;20043;-83
2021/06/05 05:00:24;;;;;;;77.47;33.58;;;15.30;98.20;;;;;;4920283;29;20047;-83
2021/06/05 05:02:50;;;;;;;133.75;40.22;;;15.30;98.30;;;;;;4931204;28;20047;-83
2021/06/05 05:05:16;;;;;;;81.45;34.47;;;15.30;98.30;;;;;;4934390;28;20145;-84
2021/06/05 05:07:48;;;;;;;78.47;31.27;;;15.30;98.40;;;;;;4932496;28;20043;-83
2021/06/05 05:10:15;;;;;;;61.10;29.58;;;15.20;98.50;;;;;;4936769;28;20384;-84
2021/06/05 05:12:41;;;;;;;56.72;27.85;;;15.20;98.50;;;;;;4947507;28;20091;-81
2021/06/05 05:15:08;;;;;;;70.53;31.65;;;15.10;98.60;;;;;;4919983;28;20204;-82
2021/06/05 05:17:34;;;;;;;115.18;35.25;;;15.10;98.70;;;;;;4930619;28;20427;-83
2021/06/05 05:20:03;;;;;;;73.35;29.88;;;15.10;98.80;;;;;;4959231;28;20093;-82
2021/06/05 05:22:29;;;;;;;96.35;34.35;;;15.10;98.90;;;;;;4936931;29;20035;-82
2021/06/05 05:24:55;;;;;;;64.13;28.77;;;15.00;99.00;;;;;;4934415;28;20398;-81
2021/06/05 05:27:21;;;;;;;76.85;33.50;;;15.10;99.10;;;;;;4934548;28;21587;-82
2021/06/05 05:29:47;;;;;;;139.90;36.65;;;15.10;99.20;;;;;;4905868;29;20163;-83
2021/06/05 05:32:12;;;;;;;90.88;32.22;;;15.10;99.20;;;;;;4903170;29;20065;-83
2021/06/05 05:34:38;;;;;;;88.82;33.03;;;15.10;99.30;;;;;;4920663;29;20046;-82
2021/06/05 05:37:04;;;;;;;51.97;27.17;;;15.20;99.30;;;;;;4952099;28;20104;-83
2021/06/05 05:39:30;;;;;;;65.50;28.63;;;15.20;99.40;;;;;;4940215;28;20112;-83
2021/06/05 05:41:56;;;;;;;66.80;28.60;;;15.20;99.40;;;;;;4961896;28;20094;-83
2021/06/05 05:44:22;;;;;;;105.05;31.92;;;15.20;99.30;;;;;;4913038;29;20036;-83
2021/06/05 05:46:49;;;;;;;62.95;26.83;;;15.20;99.30;;;;;;4947732;28;20414;-83
2021/06/05 05:49:16;;;;;;;91.90;28.58;;;15.20;99.40;;;;;;4955957;28;20039;-84
2021/06/05 05:51:42;;;;;;;84.88;28.58;;;15.10;99.30;;;;;;4947159;28;20095;-83
2021/06/05 05:54:08;;;;;;;106.65;30.10;;;15.20;99.40;;;;;;4961700;28;20043;-85
2021/06/05 05:56:35;;;;;;;95.18;28.80;;;15.10;99.40;;;;;;4928245;29;20434;-86
2021/06/05 05:59:01;;;;;;;58.13;21.90;;;15.20;99.50;;;;;;4957238;28;20039;-85
2021/06/05 06:01:29;;;;;;;47.90;18.42;;;15.10;99.50;;;;;;4940878;28;20740;-86
2021/06/05 06:03:57;;;;;;;37.80;16.38;;;15.10;99.50;;;;;;4936190;28;20039;-86
2021/06/05 06:06:25;;;;;;;36.85;14.93;;;15.10;99.50;;;;;;4942501;28;20055;-83
2021/06/05 06:08:53;;;;;;;27.38;13.70;;;15.10;99.60;;;;;;4928350;28;20067;-83
2021/06/05 06:11:19;;;;;;;38.55;14.68;;;15.00;99.60;;;;;;4932438;28;20035;-86
2021/06/05 06:13:45;;;;;;;31.73;14.15;;;15.00;99.70;;;;;;4968894;28;20059;-87
2021/06/05 06:16:15;;;;;;;17.95;11.32;;;14.90;99.70;;;;;;4917887;29;20047;-83
2021/06/05 06:18:42;;;;;;;25.10;11.40;;;15.00;99.80;;;;;;4943371;28;20039;-83
2021/06/05 06:21:10;;;;;;;30.95;12.25;;;14.90;99.80;;;;;;4949861;28;20047;-84
2021/06/05 06:23:39;;;;;;;25.20;12.65;;;14.90;99.80;;;;;;4961063;28;20036;-84
2021/06/05 06:26:17;;;;;;;19.90;10.80;;;14.90;99.90;;;;;;4941839;28;20474;-83
2021/06/05 06:28:43;;;;;;;22.38;12.18;;;14.90;99.90;;;;;;4959520;28;20043;-82
2021/06/05 06:31:10;;;;;;;31.13;14.00;;;14.90;99.90;;;;;;4944985;28;20245;-82
2021/06/05 06:33:36;;;;;;;38.47;14.70;;;14.90;99.90;;;;;;4944062;28;20418;-82
2021/06/05 06:36:04;;;;;;;20.75;12.43;;;14.90;99.90;;;;;;4937026;28;20237;-82
2021/06/05 06:38:38;;;;;;;23.20;11.32;;;14.90;99.90;;;;;;4944129;28;20052;-82
2021/06/05 06:41:11;;;;;;;15.52;10.35;;;14.90;99.90;;;;;;4969975;28;20058;-83
2021/06/05 06:43:37;;;;;;;20.02;10.48;;;14.90;99.90;;;;;;4938286;28;20043;-82
2021/06/05 06:46:07;;;;;;;24.73;12.07;;;14.90;99.90;;;;;;4925781;28;20439;-82
2021/06/05 06:48:34;;;;;;;24.40;12.63;;;14.90;99.90;;;;;;4967917;28;20093;-83
2021/06/05 06:51:00;;;;;;;48.30;14.80;;;14.90;99.90;;;;;;4922009;28;20281;-82
2021/06/05 06:53:26;;;;;;;21.85;12.25;;;14.90;99.90;;;;;;4951587;28;21131;-82
2021/06/05 06:55:52;;;;;;;24.77;12.63;;;15.00;99.90;;;;;;4954044;28;20550;-83
2021/06/05 06:58:18;;;;;;;19.75;10.70;;;14.90;99.90;;;;;;4922011;28;20127;-81
2021/06/05 07:00:46;;;;;;;18.35;10.05;;;15.00;99.90;;;;;;4941110;28;20479;-81
2021/06/05 07:03:13;;;;;;;19.80;10.38;;;15.00;99.90;;;;;;4949081;29;20529;-83
2021/06/05 07:05:39;;;;;;;17.20;11.07;;;14.90;99.90;;;;;;4943482;29;20039;-81
2021/06/05 07:08:24;;;;;;;16.98;11.10;;;14.90;99.90;;;;;;4940862;28;20045;-81
2021/06/05 07:10:53;;;;;;;32.13;13.82;;;14.90;99.90;;;;;;4967109;28;20050;-82
2021/06/05 07:13:20;;;;;;;25.67;14.43;;;14.90;99.90;;;;;;4939754;28;20035;-81
2021/06/05 07:15:47;;;;;;;22.35;13.43;;;14.90;99.90;;;;;;4967375;28;20454;-83
2021/06/05 07:18:15;;;;;;;32.45;15.90;;;14.90;99.90;;;;;;4922987;28;20516;-80
2021/06/05 07:20:44;;;;;;;29.67;15.27;;;15.00;99.90;;;;;;4937590;28;20050;-80
2021/06/05 07:23:10;;;;;;;22.80;13.27;;;15.00;99.90;;;;;;4971866;28;20379;-81
2021/06/05 07:25:36;;;;;;;20.20;13.65;;;15.00;99.90;;;;;;4937874;28;20031;-81
2021/06/05 07:28:22;;;;;;;25.27;15.50;;;15.00;99.90;;;;;;4972840;28;20101;-81
2021/06/05 07:30:48;;;;;;;32.90;16.80;;;15.10;99.90;;;;;;4967327;28;20374;-81
2021/06/05 07:33:15;;;;;;;26.70;16.90;;;15.10;99.90;;;;;;4927619;28;20031;-82
2021/06/05 07:35:41;;;;;;;24.13;14.43;;;15.10;99.90;;;;;;4944039;28;20035;-81
2021/06/05 07:38:10;;;;;;;35.03;20.02;;;15.20;99.90;;;;;;4938657;28;20046;-80
2021/06/05 07:40:37;;;;;;;27.45;18.02;;;15.20;99.90;;;;;;4942491;28;20054;-81
2021/06/05 07:43:03;;;;;;;30.27;19.10;;;15.30;99.90;;;;;;4969366;28;20054;-80
2021/06/05 07:45:29;;;;;;;35.88;21.08;;;15.30;99.90;;;;;;4931008;29;20498;-80
2021/06/05 07:47:55;;;;;;;39.83;22.30;;;15.40;99.90;;;;;;4958279;28;20422;-80
2021/06/05 07:50:22;;;;;;;41.10;22.58;;;15.40;99.90;;;;;;4949838;28;20042;-80
2021/06/05 07:52:47;;;;;;;109.25;31.10;;;15.50;99.90;;;;;;4967418;28;20039;-80
2021/06/05 07:55:14;;;;;;;44.20;24.83;;;15.50;99.90;;;;;;4932636;29;20058;-81
2021/06/05 07:57:40;;;;;;;35.72;22.80;;;15.60;99.90;;;;;;4950958;29;20045;-81
2021/06/05 08:00:27;;;;;;;29.17;20.80;;;15.60;99.90;;;;;;4951156;28;20063;-82
2021/06/05 08:02:54;;;;;;;31.73;20.75;;;15.70;99.90;;;;;;4950787;28;20073;-82
2021/06/05 08:05:20;;;;;;;34.40;22.67;;;15.70;99.90;;;;;;4933767;29;20043;-82
2021/06/05 08:07:47;;;;;;;39.95;25.80;;;15.80;99.90;;;;;;4950295;28;20484;-82
2021/06/05 08:10:14;;;;;;;26.88;19.35;;;16.00;99.90;;;;;;4950624;28;20039;-83
2021/06/05 08:12:40;;;;;;;28.77;20.42;;;16.10;99.90;;;;;;4952928;28;20043;-82
2021/06/05 08:15:10;;;;;;;27.60;19.80;;;16.20;99.90;;;;;;4983093;28;20031;-83
2021/06/05 08:17:36;;;;;;;36.38;22.88;;;16.20;99.90;;;;;;4967775;28;20039;-82
2021/06/05 08:20:04;;;;;;;29.80;20.85;;;16.20;99.90;;;;;;4984105;28;20391;-82
2021/06/05 08:22:30;;;;;;;33.20;22.90;;;16.30;99.90;;;;;;4950686;28;20049;-82
2021/06/05 08:24:55;;;;;;;52.58;28.27;;;16.40;99.90;;;;;;4952940;29;20550;-82
2021/06/05 08:27:22;;;;;;;30.08;22.13;;;16.60;99.90;;;;;;4953062;28;20511;-83
2021/06/05 08:29:47;;;;;;;28.05;19.83;;;16.70;99.90;;;;;;4981637;28;20130;-84
2021/06/05 08:32:14;;;;;;;25.42;20.60;;;16.70;99.90;;;;;;4962535;28;20114;-82
2021/06/05 08:34:40;;;;;;;25.73;18.23;;;16.80;99.90;;;;;;4942513;28;20047;-83
2021/06/05 08:37:06;;;;;;;27.55;18.90;;;16.80;99.90;;;;;;4958982;28;20101;-82
2021/06/05 08:39:32;;;;;;;20.92;16.83;;;16.80;99.90;;;;;;4941174;28;20027;-83
2021/06/05 08:42:00;;;;;;;27.58;18.73;;;16.90;99.90;;;;;;4954838;28;20039;-84
2021/06/05 08:44:35;;;;;;;22.55;16.08;;;17.00;99.90;;;;;;4964922;28;20043;-84
2021/06/05 08:47:12;;;;;;;20.85;16.77;;;17.00;99.90;;;;;;4940413;28;20032;-83
2021/06/05 08:49:41;;;;;;;27.77;21.15;;;17.10;99.90;;;;;;4944703;28;20039;-83
2021/06/05 08:52:17;;;;;;;25.83;20.63;;;17.30;99.90;;;;;;4952315;28;20050;-83
2021/06/05 08:54:50;;;;;;;22.55;18.73;;;17.30;99.90;;;;;;4948985;29;20253;-83
2021/06/05 08:57:35;;;;;;;25.30;17.95;;;17.50;99.90;;;;;;4938972;28;20036;-82
2021/06/05 09:00:30;;;;;;;26.83;20.35;;;17.60;99.80;;;;;;4947902;28;20039;-82
2021/06/05 09:03:00;;;;;;;20.90;17.63;;;17.60;99.70;;;;;;4957841;28;20134;-82
2021/06/05 09:05:34;;;;;;;35.97;25.02;;;17.70;99.70;;;;;;4955695;28;20050;-84
2021/06/05 09:08:01;;;;;;;32.20;25.50;;;17.80;99.70;;;;;;4973923;28;20055;-84
2021/06/05 09:10:30;;;;;;;28.98;24.13;;;17.80;99.60;;;;;;4932585;29;20039;-84
2021/06/05 09:12:56;;;;;;;28.98;23.17;;;17.90;99.50;;;;;;4947132;28;20040;-84
2021/06/05 09:15:26;;;;;;;22.98;20.38;;;17.80;99.50;;;;;;4940217;28;20031;-83
2021/06/05 09:17:55;;;;;;;30.33;22.90;;;17.80;99.00;;;;;;4936754;28;20036;-83
2021/06/05 09:20:39;;;;;;;31.05;23.10;;;17.80;98.90;;;;;;4933776;28;20487;-83
2021/06/05 09:23:24;;;;;;;25.65;21.10;;;17.70;99.00;;;;;;4956065;28;20125;-82
2021/06/05 09:26:26;;;;;;;24.48;20.75;;;17.70;98.90;;;;;;4964783;28;20031;-83
2021/06/05 09:29:18;;;;;;;26.45;22.27;;;17.70;98.90;;;;;;4930900;28;20047;-83
2021/06/05 09:31:51;;;;;;;29.70;23.65;;;17.80;99.00;;;;;;4934086;28;20145;-85
2021/06/05 09:34:17;;;;;;;22.50;19.10;;;17.80;99.10;;;;;;4944724;28;20035;-81
2021/06/05 09:36:43;;;;;;;25.30;21.40;;;17.90;99.10;;;;;;4943253;28;20031;-86
2021/06/05 09:39:13;;;;;;;27.35;22.95;;;18.00;99.10;;;;;;4924887;28;20035;-84
2021/06/05 09:41:42;;;;;;;26.10;22.30;;;18.10;99.10;;;;;;4923198;28;20054;-85
2021/06/05 09:44:30;;;;;;;22.38;20.08;;;18.10;99.10;;;;;;4953105;28;20043;-84
2021/06/05 09:47:19;;;;;;;24.73;22.00;;;18.20;98.90;;;;;;4966927;28;20035;-84
2021/06/05 09:49:50;;;;;;;26.10;21.65;;;18.20;98.80;;;;;;4973726;28;20098;-84
2021/06/05 09:52:26;;;;;;;26.52;22.58;;;18.20;98.70;;;;;;4947837;28;20115;-86
2021/06/05 09:54:55;;;;;;;26.67;21.40;;;18.20;98.80;;;;;;4950426;28;20038;-85
2021/06/05 09:57:26;;;;;;;21.58;19.27;;;18.30;98.80;;;;;;4931998;29;20040;-84
2021/06/05 10:00:13;;;;;;;22.85;20.40;;;18.30;98.60;;;;;;4961051;28;20078;-83
2021/06/05 10:02:51;;;;;;;25.42;19.98;;;18.30;98.50;;;;;;4939995;28;20383;-84
2021/06/05 10:05:38;;;;;;;22.33;19.58;;;18.40;98.30;;;;;;4969804;28;20043;-85
2021/06/05 10:08:39;;;;;;;32.38;26.67;;;18.50;98.00;;;;;;4949170;28;20046;-87
2021/06/05 10:11:41;;;;;;;21.55;16.38;;;18.60;98.20;;;;;;4972988;28;20057;-83
2021/06/05 10:14:12;;;;;;;15.20;13.15;;;18.60;98.20;;;;;;4961548;28;20031;-84
2021/06/05 10:16:45;;;;;;;12.98;11.68;;;18.60;98.20;;;;;;4973190;28;20046;-84
2021/06/05 10:19:35;;;;;;;15.80;11.88;;;18.60;98.10;;;;;;4941335;28;20039;-85
2021/06/05 10:22:00;;;;;;;12.70;11.40;;;18.60;98.00;;;;;;4976168;28;20066;-85
2021/06/05 10:25:05;;;;;;;11.35;10.25;;;18.50;98.00;;;;;;4917089;29;20039;-85
2021/06/05 10:27:36;;;;;;;12.45;11.23;;;18.60;98.00;;;;;;4943862;28;20047;-85
2021/06/05 10:30:26;;;;;;;17.25;15.45;;;18.60;98.00;;;;;;4948671;28;20233;-85
2021/06/05 10:32:53;;;;;;;13.77;10.98;;;18.70;98.20;;;;;;4946679;28;20035;-86
2021/06/05 10:35:36;;;;;;;14.60;11.30;;;18.70;98.30;;;;;;4926377;29;20105;-86
2021/06/05 10:38:07;;;;;;;;;;;18.90;97.90;;;;;;4949646;28;20281;-85
2021/06/05 10:40:40;;;;;;;12.50;10.70;;;19.00;97.70;;;;;;4949153;28;19922;-87
2021/06/05 10:43:14;;;;;;;13.57;12.15;;;19.00;97.70;;;;;;4951249;28;20032;-85
2021/06/05 10:45:48;;;;;;;13.07;11.68;;;19.10;97.60;;;;;;4943839;28;20376;-86
2021/06/05 10:48:23;;;;;;;13.20;11.80;;;19.20;97.60;;;;;;4931445;29;20068;-85
2021/06/05 10:51:08;;;;;;;17.38;15.40;;;19.20;97.60;;;;;;4951001;28;20032;-85
2021/06/05 10:53:44;;;;;;;15.30;13.70;;;19.20;97.60;;;;;;4948670;29;20037;-85
2021/06/05 10:56:17;;;;;;;18.10;16.13;;;19.20;97.70;;;;;;4980303;28;20042;-86
2021/06/05 10:58:52;;;;;;;17.27;15.55;;;19.20;97.70;;;;;;4952087;28;20061;-85
2021/06/05 11:01:40;;;;;;;16.30;13.85;;;19.20;97.60;;;;;;4951486;28;20499;-86
2021/06/05 11:04:27;;;;;;;17.30;14.52;;;19.20;97.60;;;;;;4934138;29;20317;-86
2021/06/05 11:07:02;;;;;;;15.88;14.20;;;19.10;97.60;;;;;;4978759;28;20039;-85
2021/06/05 11:09:31;;;;;;;16.00;14.40;;;19.10;97.60;;;;;;4955170;28;20046;-85
2021/06/05 11:12:20;;;;;;;16.48;14.55;;;19.10;97.60;;;;;;4946515;28;20039;-85
2021/06/05 11:14:48;;;;;;;17.02;15.25;;;19.10;97.50;;;;;;4946033;28;20035;-86
2021/06/05 11:17:38;;;;;;;15.43;13.82;;;19.10;97.50;;;;;;4930494;29;20552;-85
2021/06/05 11:20:07;;;;;;;19.42;17.42;;;19.00;97.40;;;;;;4976119;28;20051;-86
2021/06/05 11:22:51;;;;;;;23.73;21.23;;;19.00;97.50;;;;;;4940519;28;20039;-86
2021/06/05 11:25:17;;;;;;;24.40;21.92;;;18.90;97.50;;;;;;4948883;28;20044;-85
2021/06/05 11:27:45;;;;;;;25.33;22.63;;;18.90;97.50;;;;;;4968988;28;20083;-86
2021/06/05 11:30:22;;;;;;;26.05;23.42;;;18.80;97.50;;;;;;4955335;28;20040;-85
2021/06/05 11:32:57;;;;;;;30.83;27.10;;;18.80;97.50;;;;;;4950796;28;20040;-84
2021/06/05 11:35:32;;;;;;;31.15;27.85;;;18.70;97.50;;;;;;4943313;28;20465;-85
2021/06/05 11:38:01;;;;;;;30.58;27.13;;;18.70;97.50;;;;;;4943995;28;20053;-86
2021/06/05 11:40:57;;;;;;;30.38;25.10;;;18.60;97.50;;;;;;4942050;28;20046;-85
2021/06/05 11:43:29;;;;;;;30.17;26.10;;;18.50;97.40;;;;;;4973698;28;20498;-85
2021/06/05 11:46:14;;;;;;;31.13;27.23;;;18.50;97.50;;;;;;4945854;29;20063;-84
2021/06/05 11:48:49;;;;;;;29.52;26.35;;;18.50;97.90;;;;;;4973369;28;20395;-86
2021/06/05 11:51:21;;;;;;;29.00;25.88;;;18.50;97.70;;;;;;4976144;28;20031;-85
2021/06/05 11:53:55;;;;;;;31.10;27.75;;;18.50;97.70;;;;;;4984137;28;20051;-86
2021/06/05 11:56:42;;;;;;;33.97;29.33;;;18.50;97.90;;;;;;4951683;28;20505;-85
2021/06/05 11:59:33;;;;;;;30.23;26.92;;;18.50;97.70;;;;;;4970735;28;20694;-86
2021/06/05 12:02:28;;;;;;;33.20;27.80;;;18.50;97.70;;;;;;4936555;28;20051;-85
2021/06/05 12:05:05;;;;;;;30.98;27.73;;;18.50;97.80;;;;;;4938567;29;20047;-85
2021/06/05 12:07:32;;;;;;;35.17;28.25;;;18.50;97.80;;;;;;4946951;28;20101;-85
2021/06/05 12:10:00;;;;;;;36.05;27.90;;;18.50;97.80;;;;;;4974928;28;20039;-85
2021/06/05 12:12:37;;;;;;;32.88;27.13;;;18.50;97.70;;;;;;4937879;28;20502;-85
2021/06/05 12:15:09;;;;;;;41.72;34.63;;;18.50;97.80;;;;;;4943521;28;20035;-85
2021/06/05 12:17:38;;;;;;;44.30;36.92;;;18.50;97.70;;;;;;4970441;28;20043;-85
2021/06/05 12:20:35;;;;;;;46.05;39.10;;;18.50;97.70;;;;;;4975276;28;20535;-85
2021/06/05 12:23:20;;;;;;;44.58;39.50;;;18.50;97.70;;;;;;4939383;28;20462;-86
2021/06/05 12:25:47;;;;;;;47.03;40.35;;;18.50;97.70;;;;;;4954590;28;20031;-85
2021/06/05 12:28:22;;;;;;;51.35;41.00;;;18.50;97.70;;;;;;4969163;28;20075;-85
2021/06/05 12:30:50;;;;;;;48.65;40.72;;;18.60;97.50;;;;;;4960934;28;20039;-85
2021/06/05 12:33:58;;;;;;;48.47;41.13;;;18.60;97.40;;;;;;4969213;28;20491;-84
2021/06/05 12:36:33;;;;;;;45.83;37.88;;;18.50;97.20;;;;;;4938051;29;20490;-87
2021/06/05 12:39:14;;;;;;;44.05;39.10;;;18.50;97.20;;;;;;4981846;28;20027;-86
2021/06/05 12:41:43;;;;;;;50.63;42.05;;;18.40;97.00;;;;;;4933148;28;20074;-85
2021/06/05 12:44:21;;;;;;;49.88;42.28;;;18.40;97.10;;;;;;4953074;28;20034;-85